Time;durP1;ratioP1;P1;durP2;ratioP2;P2;SDS_P1;SDS_P2;PMS_P1;PMS_P2;Temp;Humidity;BMP_temperature;BMP_pressure;BME280_temperature;BME280_humidity;BME280_pressure;Samples;Min_cycle;Max_cycle;Signal;HPM_P1;HPM_P2
2023/07/29 00:02:18;;;;;;;;;;;;;;;;;;5076724;27;89791;-65
2023/07/29 00:04:43;;;;;;;;;;;;;;;;;;5080704;27;89331;-66
2023/07/29 00:07:08;;;;;;;;;;;;;;;;;;5071749;27;89426;-66
2023/07/29 00:09:34;;;;;;;;;;;;;;;;;;5076083;27;89106;-65
2023/07/29 00:11:59;;;;;;;;;;;;;;;;;;5081338;27;89117;-66
2023/07/29 00:14:24;;;;;;;;;;;;;;;;;;5077980;27;89362;-66
2023/07/29 00:16:49;;;;;;;;;;;;;;;;;;5071701;27;90542;-67
2023/07/29 00:19:14;;;;;;;;;;;;;;;;;;5081114;27;89014;-65
2023/07/29 00:21:41;;;;;;;;;;;;;;;;;;5084325;27;91210;-67
2023/07/29 00:24:06;;;;;;;;;;;;;;;;;;5074940;27;89031;-66
2023/07/29 00:26:31;;;;;;;;;;;;;;;;;;5079532;27;89527;-66
2023/07/29 00:28:57;;;;;;;;;;;;;;;;;;5080380;27;90086;-65
2023/07/29 00:31:22;;;;;;;;;;;;;;;;;;5071068;27;89876;-65
2023/07/29 00:33:48;;;;;;;;;;;;;;;;;;5073904;27;90933;-65
2023/07/29 00:36:13;;;;;;;;;;;;;;;;;;5073653;27;89637;-67
2023/07/29 00:38:38;;;;;;;;;;;;;;;;;;5080445;27;90048;-66
2023/07/29 00:41:03;;;;;;;;;;;;;;;;;;5073698;27;89568;-65
2023/07/29 00:43:29;;;;;;;;;;;;;;;;;;5078889;27;89529;-66
2023/07/29 00:45:54;;;;;;;;;;;;;;;;;;5078545;27;89737;-66
2023/07/29 00:48:19;;;;;;;;;;;;;;;;;;5074794;27;90875;-65
2023/07/29 00:50:45;;;;;;;;;;;;;;;;;;5073619;27;89507;-66
2023/07/29 00:53:10;;;;;;;;;;;;;;;;;;5078949;27;90610;-67
2023/07/29 00:55:35;;;;;;;;;;;;;;;;;;5079975;27;89946;-67
2023/07/29 00:58:00;;;;;;;;;;;;;;;;;;5083006;27;89412;-65
2023/07/29 01:00:26;;;;;;;;;;;;;;;;;;5074644;27;89630;-65
2023/07/29 01:02:52;;;;;;;;;;;;;;;;;;5086872;27;89607;-65
2023/07/29 01:05:18;;;;;;;;;;;;;;;;;;5075691;27;90773;-65
2023/07/29 01:07:49;;;;;;;;;;;;;;;;;;5079825;27;89422;-66
2023/07/29 01:10:17;;;;;;;;;;;;;;;;;;5075634;27;89016;-65
2023/07/29 01:13:00;;;;;;;;;;;;;;;;;;5078302;27;89590;-65
2023/07/29 01:15:33;;;;;;;;;;;;;;;;;;5078885;27;90571;-66
2023/07/29 01:18:04;;;;;;;;;;;;;;;;;;5079460;27;89474;-66
2023/07/29 01:20:32;;;;;;;;;;;;;;;;;;5082703;27;93243;-66
2023/07/29 01:22:57;;;;;;;;;;;;;;;;;;5077983;27;89695;-67
2023/07/29 01:25:22;;;;;;;;;;;;;;;;;;5081527;27;89703;-66
2023/07/29 01:27:51;;;;;;;;;;;;;;;;;;5085268;27;89785;-67
2023/07/29 01:30:16;;;;;;;;;;;;;;;;;;5076585;27;89879;-66
2023/07/29 01:32:58;;;;;;;;;;;;;;;;;;5082169;27;89591;-64
2023/07/29 01:35:31;;;;;;;;;;;;;;;;;;5082370;27;91453;-65
2023/07/29 01:38:01;;;;;;;;;;;;;;;;;;5083526;27;89156;-65
2023/07/29 01:40:27;;;;;;;;;;;;;;;;;;5080358;27;90918;-67
2023/07/29 01:42:52;;;;;;;;;;;;;;;;;;5076756;27;89182;-66
2023/07/29 01:45:18;;;;;;;;;;;;;;;;;;5084221;27;89015;-65
2023/07/29 01:47:43;;;;;;;;;;;;;;;;;;5080722;27;89454;-65
2023/07/29 01:50:09;;;;;;;;;;;;;;;;;;5082416;27;89283;-65
2023/07/29 01:52:34;;;;;;;;;;;;;;;;;;5082417;27;89513;-66
2023/07/29 01:54:59;;;;;;;;;;;;;;;;;;5080742;27;89544;-66
2023/07/29 01:57:24;;;;;;;;;;;;;;;;;;5080742;27;89671;-67
2023/07/29 01:59:51;;;;;;;;;;;;;;;;;;5084781;27;89501;-67
2023/07/29 02:02:16;;;;;;;;;;;;;;;;;;5080599;27;89106;-67
2023/07/29 02:04:41;;;;;;;;;;;;;;;;;;5087587;27;89746;-66
2023/07/29 02:07:06;;;;;;;;;;;;;;;;;;5074261;27;89545;-66
2023/07/29 02:09:32;;;;;;;;;;;;;;;;;;5080472;27;89270;-67
2023/07/29 02:11:57;;;;;;;;;;;;;;;;;;5079418;27;89514;-66
2023/07/29 02:14:22;;;;;;;;;;;;;;;;;;5078831;27;89890;-66
2023/07/29 02:16:48;;;;;;;;;;;;;;;;;;5072860;27;89875;-67
2023/07/29 02:19:13;;;;;;;;;;;;;;;;;;5073696;27;90864;-69
2023/07/29 02:21:38;;;;;;;;;;;;;;;;;;5077645;27;89775;-66
2023/07/29 02:24:03;;;;;;;;;;;;;;;;;;5079190;27;89348;-67
2023/07/29 02:26:29;;;;;;;;;;;;;;;;;;5077948;27;90661;-67
2023/07/29 02:28:54;;;;;;;;;;;;;;;;;;5082918;27;89290;-66
2023/07/29 02:31:19;;;;;;;;;;;;;;;;;;5078858;27;89675;-67
2023/07/29 02:33:44;;;;;;;;;;;;;;;;;;5082505;27;89832;-66
2023/07/29 02:36:11;;;;;;;;;;;;;;;;;;5081032;27;89093;-65
2023/07/29 02:38:36;;;;;;;;;;;;;;;;;;5083547;27;89657;-66
2023/07/29 02:41:02;;;;;;;;;;;;;;;;;;5072200;27;89950;-66
2023/07/29 02:43:27;;;;;;;;;;;;;;;;;;5075331;27;90055;-65
2023/07/29 02:45:52;;;;;;;;;;;;;;;;;;5089018;27;89530;-67
2023/07/29 02:48:17;;;;;;;;;;;;;;;;;;5083483;27;89206;-66
2023/07/29 02:50:43;;;;;;;;;;;;;;;;;;5079444;27;88999;-66
2023/07/29 02:53:08;;;;;;;;;;;;;;;;;;5083842;27;90790;-67
2023/07/29 02:55:33;;;;;;;;;;;;;;;;;;5077665;27;90714;-67
2023/07/29 02:57:58;;;;;;;;;;;;;;;;;;5085678;27;90417;-66
2023/07/29 03:00:23;;;;;;;;;;;;;;;;;;5080414;27;89837;-65
2023/07/29 03:02:49;;;;;;;;;;;;;;;;;;5079695;27;90436;-67
2023/07/29 03:05:15;;;;;;;;;;;;;;;;;;5077212;27;89896;-67
2023/07/29 03:07:40;;;;;;;;;;;;;;;;;;5086184;27;89417;-67
2023/07/29 03:10:06;;;;;;;;;;;;;;;;;;5081217;27;90473;-65
2023/07/29 03:12:31;;;;;;;;;;;;;;;;;;5077836;27;90894;-66
2023/07/29 03:14:56;;;;;;;;;;;;;;;;;;5082972;27;89649;-68
2023/07/29 03:17:21;;;;;;;;;;;;;;;;;;5076375;27;89643;-66
2023/07/29 03:19:47;;;;;;;;;;;;;;;;;;5083744;27;89555;-66
2023/07/29 03:22:12;;;;;;;;;;;;;;;;;;5083213;27;89046;-66
2023/07/29 03:24:37;;;;;;;;;;;;;;;;;;5079095;27;90690;-66
2023/07/29 03:27:02;;;;;;;;;;;;;;;;;;5088838;27;89779;-65
2023/07/29 03:29:28;;;;;;;;;;;;;;;;;;5076610;27;89693;-65
2023/07/29 03:31:53;;;;;;;;;;;;;;;;;;5077905;27;88964;-64
2023/07/29 03:34:18;;;;;;;;;;;;;;;;;;5083025;27;90384;-67
2023/07/29 03:36:45;;;;;;;;;;;;;;;;;;5079370;27;89859;-67
2023/07/29 03:39:11;;;;;;;;;;;;;;;;;;5079107;27;90291;-66
2023/07/29 03:41:36;;;;;;;;;;;;;;;;;;5079098;27;90286;-65
2023/07/29 03:44:01;;;;;;;;;;;;;;;;;;5077006;27;90786;-66
2023/07/29 03:46:26;;;;;;;;;;;;;;;;;;5077093;27;89925;-66
2023/07/29 03:48:51;;;;;;;;;;;;;;;;;;5076785;27;89799;-65
2023/07/29 03:51:17;;;;;;;;;;;;;;;;;;5076497;27;89730;-68
2023/07/29 03:53:42;;;;;;;;;;;;;;;;;;5084510;27;89211;-66
2023/07/29 03:56:07;;;;;;;;;;;;;;;;;;5090860;27;89034;-68
2023/07/29 03:58:32;;;;;;;;;;;;;;;;;;5081953;27;89488;-66
2023/07/29 04:00:58;;;;;;;;;;;;;;;;;;5087009;27;89647;-65
2023/07/29 04:03:23;;;;;;;;;;;;;;;;;;5075867;27;90062;-67
2023/07/29 04:05:48;;;;;;;;;;;;;;;;;;5085522;27;89102;-65
2023/07/29 04:08:13;;;;;;;;;;;;;;;;;;5080076;27;89018;-68
2023/07/29 04:10:39;;;;;;;;;;;;;;;;;;5072059;27;89424;-67
2023/07/29 04:13:04;;;;;;;;;;;;;;;;;;5079819;27;89770;-66
2023/07/29 04:15:30;;;;;;;;;;;;;;;;;;5078687;27;89902;-67
2023/07/29 04:17:55;;;;;;;;;;;;;;;;;;5082235;27;90730;-67
2023/07/29 04:20:20;;;;;;;;;;;;;;;;;;5079175;27;89299;-67
2023/07/29 04:22:46;;;;;;;;;;;;;;;;;;5081824;27;91094;-65
2023/07/29 04:25:11;;;;;;;;;;;;;;;;;;5072188;27;89353;-66
2023/07/29 04:27:37;;;;;;;;;;;;;;;;;;5079742;27;89420;-67
2023/07/29 04:30:02;;;;;;;;;;;;;;;;;;5075353;27;89524;-66
2023/07/29 04:32:27;;;;;;;;;;;;;;;;;;5079557;27;89831;-67
2023/07/29 04:34:52;;;;;;;;;;;;;;;;;;5081550;27;89297;-67
2023/07/29 04:37:18;;;;;;;;;;;;;;;;;;5075518;27;89550;-67
2023/07/29 04:39:43;;;;;;;;;;;;;;;;;;5087184;27;89763;-67
2023/07/29 04:42:08;;;;;;;;;;;;;;;;;;5080493;27;89999;-67
2023/07/29 04:44:33;;;;;;;;;;;;;;;;;;5076925;27;89653;-68
2023/07/29 04:46:58;;;;;;;;;;;;;;;;;;5075881;27;90292;-67
2023/07/29 04:49:24;;;;;;;;;;;;;;;;;;5078500;27;90374;-67
2023/07/29 04:51:49;;;;;;;;;;;;;;;;;;5077608;27;91031;-67
2023/07/29 04:54:14;;;;;;;;;;;;;;;;;;5083559;27;89626;-65
2023/07/29 04:56:39;;;;;;;;;;;;;;;;;;5081661;27;89816;-65
2023/07/29 04:59:04;;;;;;;;;;;;;;;;;;5082372;27;90898;-66
2023/07/29 05:01:30;;;;;;;;;;;;;;;;;;5085807;27;88994;-67
2023/07/29 05:03:55;;;;;;;;;;;;;;;;;;5081065;27;89861;-67
2023/07/29 05:06:20;;;;;;;;;;;;;;;;;;5084455;27;89112;-66
2023/07/29 05:08:45;;;;;;;;;;;;;;;;;;5085619;27;89766;-66
2023/07/29 05:11:10;;;;;;;;;;;;;;;;;;5080807;27;90273;-67
2023/07/29 05:13:36;;;;;;;;;;;;;;;;;;5083706;27;89176;-66
2023/07/29 05:16:01;;;;;;;;;;;;;;;;;;5074923;27;90937;-66
2023/07/29 05:18:26;;;;;;;;;;;;;;;;;;5085802;27;89176;-67
2023/07/29 05:20:51;;;;;;;;;;;;;;;;;;5079845;27;89030;-67
2023/07/29 05:23:17;;;;;;;;;;;;;;;;;;5070700;27;89234;-67
2023/07/29 05:25:42;;;;;;;;;;;;;;;;;;5070612;27;89087;-68
2023/07/29 05:28:07;;;;;;;;;;;;;;;;;;5075704;27;90711;-68
2023/07/29 05:30:33;;;;;;;;;;;;;;;;;;5085090;27;89950;-67
2023/07/29 05:32:59;;;;;;;;;;;;;;;;;;5089862;27;90110;-66
2023/07/29 05:35:24;;;;;;;;;;;;;;;;;;5083618;27;90943;-67
2023/07/29 05:37:49;;;;;;;;;;;;;;;;;;5084493;27;90166;-69
2023/07/29 05:40:15;;;;;;;;;;;;;;;;;;5089039;27;89087;-67
2023/07/29 05:42:40;;;;;;;;;;;;;;;;;;5080644;27;90632;-68
2023/07/29 05:45:06;;;;;;;;;;;;;;;;;;5083057;27;89149;-67
2023/07/29 05:47:31;;;;;;;;;;;;;;;;;;5084395;27;90612;-70
2023/07/29 05:49:56;;;;;;;;;;;;;;;;;;5085519;27;89193;-67
2023/07/29 05:52:21;;;;;;;;;;;;;;;;;;5087849;27;89641;-66
2023/07/29 05:54:46;;;;;;;;;;;;;;;;;;5086847;27;90234;-67
2023/07/29 05:57:12;;;;;;;;;;;;;;;;;;5087222;27;90388;-67
2023/07/29 05:59:38;;;;;;;;;;;;;;;;;;5084469;27;89202;-69
2023/07/29 06:02:03;;;;;;;;;;;;;;;;;;5078683;27;89483;-68
2023/07/29 06:04:28;;;;;;;;;;;;;;;;;;5080543;27;90710;-69
2023/07/29 06:06:55;;;;;;;;;;;;;;;;;;5079831;27;89574;-68
2023/07/29 06:09:20;;;;;;;;;;;;;;;;;;5084313;27;90594;-67
2023/07/29 06:11:46;;;;;;;;;;;;;;;;;;5083877;27;89946;-68
2023/07/29 06:14:11;;;;;;;;;;;;;;;;;;5081002;27;89479;-67
2023/07/29 06:16:37;;;;;;;;;;;;;;;;;;5088102;27;89345;-68
2023/07/29 06:19:02;;;;;;;;;;;;;;;;;;5081697;27;89504;-67
2023/07/29 06:21:27;;;;;;;;;;;;;;;;;;5081391;27;89536;-67
2023/07/29 06:23:52;;;;;;;;;;;;;;;;;;5078149;27;89368;-67
2023/07/29 06:26:18;;;;;;;;;;;;;;;;;;5082173;27;89604;-68
2023/07/29 06:28:43;;;;;;;;;;;;;;;;;;5084939;27;89924;-67
2023/07/29 06:31:08;;;;;;;;;;;;;;;;;;5086080;27;90171;-68
2023/07/29 06:33:34;;;;;;;;;;;;;;;;;;5084303;27;89765;-67
2023/07/29 06:35:59;;;;;;;;;;;;;;;;;;5085456;27;89817;-68
2023/07/29 06:38:24;;;;;;;;;;;;;;;;;;5087943;27;89873;-67
2023/07/29 06:40:49;;;;;;;;;;;;;;;;;;5084726;27;90052;-67
2023/07/29 06:43:15;;;;;;;;;;;;;;;;;;5081953;27;89511;-68
2023/07/29 06:45:40;;;;;;;;;;;;;;;;;;5079821;27;90001;-67
2023/07/29 06:48:05;;;;;;;;;;;;;;;;;;5089821;27;89236;-67
2023/07/29 06:50:31;;;;;;;;;;;;;;;;;;5080647;27;89555;-67
2023/07/29 06:52:56;;;;;;;;;;;;;;;;;;5078045;27;91074;-68
2023/07/29 06:55:21;;;;;;;;;;;;;;;;;;5080378;27;90829;-67
2023/07/29 06:57:46;;;;;;;;;;;;;;;;;;5081373;27;90077;-67
2023/07/29 07:00:11;;;;;;;;;;;;;;;;;;5079320;27;89838;-68
2023/07/29 07:02:37;;;;;;;;;;;;;;;;;;5082016;27;89504;-68
2023/07/29 07:05:02;;;;;;;;;;;;;;;;;;5074786;27;89582;-68
2023/07/29 07:07:27;;;;;;;;;;;;;;;;;;5075912;27;89683;-67
2023/07/29 07:09:52;;;;;;;;;;;;;;;;;;5085674;27;89832;-68
2023/07/29 07:12:17;;;;;;;;;;;;;;;;;;5082616;27;89523;-68
2023/07/29 07:14:43;;;;;;;;;;;;;;;;;;5083390;27;89382;-68
2023/07/29 07:17:08;;;;;;;;;;;;;;;;;;5077146;27;89288;-67
2023/07/29 07:19:33;;;;;;;;;;;;;;;;;;5078974;27;90009;-69
2023/07/29 07:21:58;;;;;;;;;;;;;;;;;;5084789;27;89829;-67
2023/07/29 07:24:23;;;;;;;;;;;;;;;;;;5084054;27;89164;-67
2023/07/29 07:26:49;;;;;;;;;;;;;;;;;;5076028;27;89712;-67
2023/07/29 07:29:14;;;;;;;;;;;;;;;;;;5085139;27;89749;-67
2023/07/29 07:31:40;;;;;;;;;;;;;;;;;;5075713;27;93538;-68
2023/07/29 07:34:05;;;;;;;;;;;;;;;;;;5081182;27;89627;-68
2023/07/29 07:36:30;;;;;;;;;;;;;;;;;;5081921;27;89806;-67
2023/07/29 07:38:56;;;;;;;;;;;;;;;;;;5086061;27;89649;-69
2023/07/29 07:41:21;;;;;;;;;;;;;;;;;;5084614;27;89351;-68
2023/07/29 07:43:47;;;;;;;;;;;;;;;;;;5079911;27;88977;-69
2023/07/29 07:46:12;;;;;;;;;;;;;;;;;;5081799;27;89470;-70
2023/07/29 07:48:37;;;;;;;;;;;;;;;;;;5079901;27;92387;-68
2023/07/29 07:51:12;;;;;;;;;;;;;;;;;;5087022;27;92680;-68
2023/07/29 07:53:38;;;;;;;;;;;;;;;;;;5079730;27;93230;-67
2023/07/29 07:56:03;;;;;;;;;;;;;;;;;;5074714;27;93985;-68
2023/07/29 07:58:28;;;;;;;;;;;;;;;;;;5076789;27;93383;-70
2023/07/29 08:01:00;;;;;;;;;;;;;;;;;;5081311;27;94746;-67
2023/07/29 08:03:25;;;;;;;;;;;;;;;;;;5078462;27;93449;-68
2023/07/29 08:05:50;;;;;;;;;;;;;;;;;;5078823;27;93647;-68
2023/07/29 08:08:16;;;;;;;;;;;;;;;;;;5083624;27;93735;-69
2023/07/29 08:10:41;;;;;;;;;;;;;;;;;;5072831;27;93901;-66
2023/07/29 08:13:06;;;;;;;;;;;;;;;;;;5078958;27;92642;-70
2023/07/29 08:15:31;;;;;;;;;;;;;;;;;;5072862;27;93520;-67
2023/07/29 08:17:57;;;;;;;;;;;;;;;;;;5076382;27;92621;-67
2023/07/29 08:20:22;;;;;;;;;;;;;;;;;;5073371;27;92498;-67
2023/07/29 08:22:47;;;;;;;;;;;;;;;;;;5073758;27;93662;-66
2023/07/29 08:25:12;;;;;;;;;;;;;;;;;;5073106;27;92668;-67
2023/07/29 08:27:37;;;;;;;;;;;;;;;;;;5074370;27;92944;-67
2023/07/29 08:30:03;;;;;;;;;;;;;;;;;;5076398;27;92848;-67
2023/07/29 08:32:28;;;;;;;;;;;;;;;;;;5071390;27;92688;-67
2023/07/29 08:34:53;;;;;;;;;;;;;;;;;;5073204;27;94107;-67
2023/07/29 08:37:19;;;;;;;;;;;;;;;;;;5073762;27;93249;-70
2023/07/29 08:39:44;;;;;;;;;;;;;;;;;;5081273;27;94049;-68
2023/07/29 08:42:11;;;;;;;;;;;;;;;;;;5077919;27;93726;-67
2023/07/29 08:44:48;;;;;;;;;;;;;;;;;;5079035;27;94768;-69
2023/07/29 08:47:14;;;;;;;;;;;;;;;;;;5078772;27;94242;-67
2023/07/29 08:49:40;;;;;;;;;;;;;;;;;;5080420;27;93033;-68
2023/07/29 08:52:06;;;;;;;;;;;;;;;;;;5079937;27;92911;-67
2023/07/29 08:54:31;;;;;;;;;;;;;;;;;;5081652;27;93043;-69
2023/07/29 08:56:57;;;;;;;;;;;;;;;;;;5084645;27;92801;-67
2023/07/29 08:59:23;;;;;;;;;;;;;;;;;;5082287;27;92779;-67
2023/07/29 09:01:49;;;;;;;;;;;;;;;;;;5082158;27;93222;-66
2023/07/29 09:04:14;;;;;;;;;;;;;;;;;;5082000;27;92613;-68
2023/07/29 09:06:42;;;;;;;;;;;;;;;;;;5074677;27;93511;-67
2023/07/29 09:09:07;;;;;;;;;;;;;;;;;;5079659;27;92870;-69
2023/07/29 09:11:33;;;;;;;;;;;;;;;;;;5081004;27;93263;-68
2023/07/29 09:13:58;;;;;;;;;;;;;;;;;;5081676;27;94215;-67
2023/07/29 09:16:24;;;;;;;;;;;;;;;;;;5071985;27;94758;-67
2023/07/29 09:18:50;;;;;;;;;;;;;;;;;;5079881;27;92260;-67
2023/07/29 09:21:16;;;;;;;;;;;;;;;;;;5075575;27;95213;-68
2023/07/29 09:23:43;;;;;;;;;;;;;;;;;;5081087;27;94167;-67
2023/07/29 09:26:08;;;;;;;;;;;;;;;;;;5074675;27;92659;-66
2023/07/29 09:28:35;;;;;;;;;;;;;;;;;;5081389;27;92011;-68
2023/07/29 09:31:00;;;;;;;;;;;;;;;;;;5077859;27;92496;-69
2023/07/29 09:33:26;;;;;;;;;;;;;;;;;;5082471;27;92293;-67
2023/07/29 09:35:51;;;;;;;;;;;;;;;;;;5074825;27;93645;-67
2023/07/29 09:38:16;;;;;;;;;;;;;;;;;;5077559;27;92289;-70
2023/07/29 09:40:41;;;;;;;;;;;;;;;;;;5078140;27;93033;-67
2023/07/29 09:43:08;;;;;;;;;;;;;;;;;;5086800;27;92870;-70
2023/07/29 09:45:35;;;;;;;;;;;;;;;;;;5079186;27;93557;-67
2023/07/29 09:48:00;;;;;;;;;;;;;;;;;;5080851;27;93555;-68
2023/07/29 09:50:25;;;;;;;;;;;;;;;;;;5075337;27;92654;-68
2023/07/29 09:52:51;;;;;;;;;;;;;;;;;;5077864;27;93716;-68
2023/07/29 09:55:19;;;;;;;;;;;;;;;;;;5074811;27;95405;-70
2023/07/29 09:57:44;;;;;;;;;;;;;;;;;;5080639;27;94419;-68
2023/07/29 10:00:13;;;;;;;;;;;;;;;;;;5077561;27;94594;-68
2023/07/29 10:02:39;;;;;;;;;;;;;;;;;;5076472;27;92875;-69
2023/07/29 10:05:05;;;;;;;;;;;;;;;;;;5079718;27;93699;-67
2023/07/29 10:07:31;;;;;;;;;;;;;;;;;;5078133;27;94156;-68
2023/07/29 10:09:57;;;;;;;;;;;;;;;;;;5084091;27;92243;-67
2023/07/29 10:12:24;;;;;;;;;;;;;;;;;;5071245;27;92568;-69
2023/07/29 10:14:50;;;;;;;;;;;;;;;;;;5079995;27;93827;-69
2023/07/29 10:17:15;;;;;;;;;;;;;;;;;;5078260;27;92454;-70
2023/07/29 10:19:42;;;;;;;;;;;;;;;;;;5077266;27;92280;-66
2023/07/29 10:22:08;;;;;;;;;;;;;;;;;;5078233;27;93884;-68
2023/07/29 10:24:33;;;;;;;;;;;;;;;;;;5079619;27;93499;-67
2023/07/29 10:26:59;;;;;;;;;;;;;;;;;;5073242;27;92989;-67
2023/07/29 10:29:28;;;;;;;;;;;;;;;;;;5075547;27;93046;-67
2023/07/29 10:31:54;;;;;;;;;;;;;;;;;;5076747;27;92200;-67
2023/07/29 10:34:20;;;;;;;;;;;;;;;;;;5074431;27;95412;-70
2023/07/29 10:36:47;;;;;;;;;;;;;;;;;;5073357;27;94082;-72
2023/07/29 10:39:12;;;;;;;;;;;;;;;;;;5081637;27;92889;-69
2023/07/29 10:41:56;;;;;;;;;;;;;;;;;;5081815;27;92351;-69
2023/07/29 10:44:40;;;;;;;;;;;;;;;;;;5082038;27;92583;-69
2023/07/29 10:47:14;;;;;;;;;;;;;;;;;;5076991;27;94085;-69
2023/07/29 10:49:43;;;;;;;;;;;;;;;;;;5073928;27;94104;-69
2023/07/29 10:52:12;;;;;;;;;;;;;;;;;;5073265;27;94303;-69
2023/07/29 10:54:44;;;;;;;;;;;;;;;;;;5081329;27;93491;-70
2023/07/29 10:57:14;;;;;;;;;;;;;;;;;;5081170;27;92381;-69
2023/07/29 10:59:40;;;;;;;;;;;;;;;;;;5078198;27;93604;-69
2023/07/29 11:02:12;;;;;;;;;;;;;;;;;;5071766;27;94140;-69
2023/07/29 11:04:46;;;;;;;;;;;;;;;;;;5078807;27;92497;-69
2023/07/29 11:07:12;;;;;;;;;;;;;;;;;;5083795;27;95864;-69
2023/07/29 11:09:53;;;;;;;;;;;;;;;;;;5080508;27;92193;-69
2023/07/29 11:12:37;;;;;;;;;;;;;;;;;;5080552;27;92475;-70
2023/07/29 11:15:03;;;;;;;;;;;;;;;;;;5073439;27;95103;-69
2023/07/29 11:17:31;;;;;;;;;;;;;;;;;;5078994;27;93180;-69
2023/07/29 11:20:00;;;;;;;;;;;;;;;;;;5069694;27;92588;-70
2023/07/29 11:22:25;;;;;;;;;;;;;;;;;;5076872;27;93059;-69
2023/07/29 11:24:50;;;;;;;;;;;;;;;;;;5083035;27;93303;-70
2023/07/29 11:27:16;;;;;;;;;;;;;;;;;;5088280;27;93800;-69
2023/07/29 11:29:41;;;;;;;;;;;;;;;;;;5077258;27;92746;-69
2023/07/29 11:32:06;;;;;;;;;;;;;;;;;;5075504;27;95206;-68
2023/07/29 11:34:32;;;;;;;;;;;;;;;;;;5075156;27;92677;-70
2023/07/29 11:36:57;;;;;;;;;;;;;;;;;;5077714;27;93330;-70
2023/07/29 11:39:22;;;;;;;;;;;;;;;;;;5077529;27;93581;-70
2023/07/29 11:41:47;;;;;;;;;;;;;;;;;;5076827;27;94064;-70
2023/07/29 11:44:19;;;;;;;;;;;;;;;;;;5078170;27;92192;-71
2023/07/29 11:46:44;;;;;;;;;;;;;;;;;;5079705;27;93626;-69
2023/07/29 11:49:10;;;;;;;;;;;;;;;;;;5078515;27;93821;-69
2023/07/29 11:51:35;;;;;;;;;;;;;;;;;;5076383;27;92393;-69
2023/07/29 11:54:01;;;;;;;;;;;;;;;;;;5079080;27;92523;-68
2023/07/29 11:56:27;;;;;;;;;;;;;;;;;;5074942;27;92090;-70
2023/07/29 11:58:53;;;;;;;;;;;;;;;;;;5078846;27;93426;-70
2023/07/29 12:01:18;;;;;;;;;;;;;;;;;;5076670;27;92247;-69
2023/07/29 12:03:44;;;;;;;;;;;;;;;;;;5074117;27;93614;-71
2023/07/29 12:06:09;;;;;;;;;;;;;;;;;;5076089;27;93043;-70
2023/07/29 12:08:36;;;;;;;;;;;;;;;;;;5074223;27;94119;-71
2023/07/29 12:11:01;;;;;;;;;;;;;;;;;;5083648;27;92380;-70
2023/07/29 12:13:26;;;;;;;;;;;;;;;;;;5076183;27;93000;-70
2023/07/29 12:15:51;;;;;;;;;;;;;;;;;;5076142;27;93098;-68
2023/07/29 12:18:17;;;;;;;;;;;;;;;;;;5075591;27;93285;-69
2023/07/29 12:20:43;;;;;;;;;;;;;;;;;;5077662;27;92783;-68
2023/07/29 12:23:08;;;;;;;;;;;;;;;;;;5075358;27;92590;-69
2023/07/29 12:25:34;;;;;;;;;;;;;;;;;;5073948;27;93710;-69
2023/07/29 12:28:03;;;;;;;;;;;;;;;;;;5077537;27;94102;-71
2023/07/29 12:30:29;;;;;;;;;;;;;;;;;;5076117;27;92642;-69
2023/07/29 12:32:54;;;;;;;;;;;;;;;;;;5077638;27;92456;-70
2023/07/29 12:35:19;;;;;;;;;;;;;;;;;;5075164;27;93386;-69
2023/07/29 12:37:44;;;;;;;;;;;;;;;;;;5076299;27;93200;-69
2023/07/29 12:40:23;;;;;;;;;;;;;;;;;;5073522;27;92700;-69
2023/07/29 12:42:48;;;;;;;;;;;;;;;;;;5078868;27;92983;-69
2023/07/29 12:45:15;;;;;;;;;;;;;;;;;;5076126;27;91484;-69
2023/07/29 12:47:40;;;;;;;;;;;;;;;;;;5075641;27;92783;-70
2023/07/29 12:50:06;;;;;;;;;;;;;;;;;;5075112;27;92629;-69
2023/07/29 12:52:31;;;;;;;;;;;;;;;;;;5075194;27;93753;-69
2023/07/29 12:54:56;;;;;;;;;;;;;;;;;;5078295;27;94373;-69
2023/07/29 12:57:21;;;;;;;;;;;;;;;;;;5075010;27;94047;-69
2023/07/29 12:59:46;;;;;;;;;;;;;;;;;;5077122;27;93218;-69
2023/07/29 13:02:12;;;;;;;;;;;;;;;;;;5076585;27;92251;-69
2023/07/29 13:04:37;;;;;;;;;;;;;;;;;;5076765;27;92918;-69
2023/07/29 13:07:02;;;;;;;;;;;;;;;;;;5077230;27;92832;-69
2023/07/29 13:09:27;;;;;;;;;;;;;;;;;;5074312;27;92162;-69
2023/07/29 13:11:53;;;;;;;;;;;;;;;;;;5075918;27;92755;-68
2023/07/29 13:14:18;;;;;;;;;;;;;;;;;;5075985;27;93074;-68
2023/07/29 13:16:43;;;;;;;;;;;;;;;;;;5081640;27;93732;-69
2023/07/29 13:19:08;;;;;;;;;;;;;;;;;;5078886;27;92570;-68
2023/07/29 13:21:33;;;;;;;;;;;;;;;;;;5079050;27;93306;-69
2023/07/29 13:23:59;;;;;;;;;;;;;;;;;;5079424;27;94083;-68
2023/07/29 13:26:24;;;;;;;;;;;;;;;;;;5079399;27;93705;-68
2023/07/29 13:28:49;;;;;;;;;;;;;;;;;;5079518;27;92619;-76
2023/07/29 13:31:15;;;;;;;;;;;;;;;;;;5078039;27;92870;-70
2023/07/29 13:33:40;;;;;;;;;;;;;;;;;;5079833;27;93093;-69
2023/07/29 13:36:05;;;;;;;;;;;;;;;;;;5082889;27;93659;-68
2023/07/29 13:38:30;;;;;;;;;;;;;;;;;;5079570;27;93655;-73
2023/07/29 13:40:56;;;;;;;;;;;;;;;;;;5075531;27;93697;-72
2023/07/29 13:43:21;;;;;;;;;;;;;;;;;;5078242;27;93368;-72
2023/07/29 13:45:48;;;;;;;;;;;;;;;;;;5077089;27;92734;-72
2023/07/29 13:48:13;;;;;;;;;;;;;;;;;;5078001;27;92830;-73
2023/07/29 13:50:39;;;;;;;;;;;;;;;;;;5076284;27;95269;-73
2023/07/29 13:53:04;;;;;;;;;;;;;;;;;;5082010;27;93297;-72
2023/07/29 13:55:29;;;;;;;;;;;;;;;;;;5085948;27;93620;-76
2023/07/29 13:57:54;;;;;;;;;;;;;;;;;;5088246;27;92046;-73
2023/07/29 14:00:20;;;;;;;;;;;;;;;;;;5084469;27;92931;-73
2023/07/29 14:02:45;;;;;;;;;;;;;;;;;;5080898;27;93342;-73
2023/07/29 14:05:11;;;;;;;;;;;;;;;;;;5077860;27;95904;-72
2023/07/29 14:07:37;;;;;;;;;;;;;;;;;;5080355;27;92865;-74
2023/07/29 14:10:02;;;;;;;;;;;;;;;;;;5085224;27;93674;-73
2023/07/29 14:12:27;;;;;;;;;;;;;;;;;;5078027;27;93639;-74
2023/07/29 14:14:52;;;;;;;;;;;;;;;;;;5074846;27;93533;-72
2023/07/29 14:17:18;;;;;;;;;;;;;;;;;;5076943;27;93288;-74
2023/07/29 14:19:43;;;;;;;;;;;;;;;;;;5080935;27;93378;-73
2023/07/29 14:22:08;;;;;;;;;;;;;;;;;;5079416;27;92430;-73
2023/07/29 14:24:33;;;;;;;;;;;;;;;;;;5075353;27;93314;-73
2023/07/29 14:26:58;;;;;;;;;;;;;;;;;;5074338;27;93075;-74
2023/07/29 14:29:24;;;;;;;;;;;;;;;;;;5075636;27;94128;-74
2023/07/29 14:31:49;;;;;;;;;;;;;;;;;;5076622;27;93411;-74
2023/07/29 14:34:14;;;;;;;;;;;;;;;;;;5077014;27;92977;-74
2023/07/29 14:36:39;;;;;;;;;;;;;;;;;;5077038;27;92452;-73
2023/07/29 14:39:05;;;;;;;;;;;;;;;;;;5075673;27;92581;-73
2023/07/29 14:41:30;;;;;;;;;;;;;;;;;;5078400;27;92517;-73
2023/07/29 14:43:55;;;;;;;;;;;;;;;;;;5078036;27;92643;-74
2023/07/29 14:46:21;;;;;;;;;;;;;;;;;;5078186;27;91470;-73
2023/07/29 14:48:46;;;;;;;;;;;;;;;;;;5076517;27;92269;-74
2023/07/29 14:51:12;;;;;;;;;;;;;;;;;;5069742;27;93834;-73
2023/07/29 14:53:37;;;;;;;;;;;;;;;;;;5081277;27;93203;-71
2023/07/29 14:56:02;;;;;;;;;;;;;;;;;;5080303;27;93581;-74
2023/07/29 14:58:28;;;;;;;;;;;;;;;;;;5080558;27;92806;-73
2023/07/29 15:00:54;;;;;;;;;;;;;;;;;;5080869;27;92676;-74
2023/07/29 15:03:19;;;;;;;;;;;;;;;;;;5086232;27;92706;-73
2023/07/29 15:05:44;;;;;;;;;;;;;;;;;;5082596;27;92861;-73
2023/07/29 15:08:10;;;;;;;;;;;;;;;;;;5077851;27;92447;-72
2023/07/29 15:10:35;;;;;;;;;;;;;;;;;;5083757;27;93134;-73
2023/07/29 15:13:00;;;;;;;;;;;;;;;;;;5082620;27;93380;-73
2023/07/29 15:15:25;;;;;;;;;;;;;;;;;;5080209;27;93269;-73
2023/07/29 15:17:50;;;;;;;;;;;;;;;;;;5082065;27;93699;-72
2023/07/29 15:20:16;;;;;;;;;;;;;;;;;;5079100;27;92338;-73
2023/07/29 15:22:41;;;;;;;;;;;;;;;;;;5081258;27;92618;-74
2023/07/29 15:25:08;;;;;;;;;;;;;;;;;;5084824;27;92741;-73
2023/07/29 15:27:33;;;;;;;;;;;;;;;;;;5079189;27;92690;-73
2023/07/29 15:29:58;;;;;;;;;;;;;;;;;;5078801;27;92746;-75
2023/07/29 15:32:24;;;;;;;;;;;;;;;;;;5083235;27;92798;-73
2023/07/29 15:34:49;;;;;;;;;;;;;;;;;;5081222;27;92978;-72
2023/07/29 15:37:14;;;;;;;;;;;;;;;;;;5082270;27;93436;-73
2023/07/29 15:39:39;;;;;;;;;;;;;;;;;;5084608;27;93081;-73
2023/07/29 15:42:05;;;;;;;;;;;;;;;;;;5081508;27;93702;-73
2023/07/29 15:44:30;;;;;;;;;;;;;;;;;;5078402;27;92697;-73
2023/07/29 15:46:56;;;;;;;;;;;;;;;;;;5079754;27;92327;-73
2023/07/29 15:49:22;;;;;;;;;;;;;;;;;;5081435;27;94045;-74
2023/07/29 15:51:47;;;;;;;;;;;;;;;;;;5081761;27;92233;-73
2023/07/29 15:54:12;;;;;;;;;;;;;;;;;;5080995;27;93959;-73
2023/07/29 15:56:38;;;;;;;;;;;;;;;;;;5080358;27;92750;-72
2023/07/29 15:59:03;;;;;;;;;;;;;;;;;;5073498;27;93785;-76
2023/07/29 16:01:28;;;;;;;;;;;;;;;;;;5077684;27;93231;-74
2023/07/29 16:03:54;;;;;;;;;;;;;;;;;;5082140;27;93671;-74
2023/07/29 16:06:19;;;;;;;;;;;;;;;;;;5079442;27;93156;-75
2023/07/29 16:08:45;;;;;;;;;;;;;;;;;;5081308;27;94415;-72
2023/07/29 16:11:10;;;;;;;;;;;;;;;;;;5077991;27;93059;-72
2023/07/29 16:13:35;;;;;;;;;;;;;;;;;;5082131;27;93267;-73
2023/07/29 16:16:00;;;;;;;;;;;;;;;;;;5078853;27;93432;-73
2023/07/29 16:18:25;;;;;;;;;;;;;;;;;;5079683;27;94414;-79
2023/07/29 16:20:51;;;;;;;;;;;;;;;;;;5082348;27;93347;-77
2023/07/29 16:23:16;;;;;;;;;;;;;;;;;;5079754;27;91995;-76
2023/07/29 16:25:42;;;;;;;;;;;;;;;;;;5079582;27;93389;-74
2023/07/29 16:28:07;;;;;;;;;;;;;;;;;;5084329;27;92951;-77
2023/07/29 16:30:32;;;;;;;;;;;;;;;;;;5077945;27;93844;-72
2023/07/29 16:32:58;;;;;;;;;;;;;;;;;;5071227;27;93127;-79
2023/07/29 16:35:23;;;;;;;;;;;;;;;;;;5080416;27;92717;-75
2023/07/29 16:37:49;;;;;;;;;;;;;;;;;;5075716;27;93007;-74